Hlavní strana
METAR-TAF:

METAR-TAF

Letiště :

Weno, Mikronésie

zeměpisná šířka: 07-28N, zeměpisná délka: 151-51E, výška: 3 m

Aktuální stav počasí

Zpráva byla vytvořena před 31 minutami, v 23:51 UTC
Severovýchodní vítr 8 kt
Teplota 30°C
Vlhkost vzduchu 84%
Tlak 1009 hPa
Viditelnost: 24.1 km
Polojasno ve výšce 1400 ft
Polojasno ve výšce 29000 ft

METAR: PTKK 172351Z 04008KT 15SM SCT014 SCT290 30/27 A2979 RMK CB DSNT NW SLP091 8/101 T02990267 10299 20275 50003

Čas: 10:22 (00:22 UTC)

Předpověď počasí

Zpráva byla vytvořena před 57 minutami, v 23:25 UTC
Předpověď platná od 18 v 00 UTC do 18 v 24 UTC
Severovýchodní vítr 8 kt
Viditelnost: 10 km
Polojasno ve výšce 1400 ft
Polojasno ve výšce 4000 ft

TAF: PTKK 172325Z 1800/1824 05008KT P6SM SCT014 SCT040

Stav a předpovědi počasí z více než 4 000 letišť (zprávy METAR a TAF).

Červené a žluté tečky na mapě představují dostupné meteorologické stanice.

Když kurzor umístíte na tečku, zobrazí se název stanice.

Pak kliknutím zobrazíte stav a předpověď počasí.

Chcete-li změnit mapu, kliknutím na zelené tlačítko se znaménkem +mapu přiblížíte, kliknutím na zelené tlačítko se znaménkem – mapu oddálíte a kliknutím na zelené šipky přejdete na sousední mapy.


METAR-TAF: